createdAt,value
2018-07-05T04:13:10.007Z,10
2018-07-05T04:13:30.183Z,10
2018-07-05T04:13:50.334Z,10
2018-07-05T04:14:10.527Z,10
2018-07-05T04:14:30.688Z,10
2018-07-05T04:14:50.851Z,10
2018-07-05T04:15:11.082Z,10
2018-07-05T04:15:31.263Z,10
2018-07-05T04:15:51.563Z,10
2018-07-05T04:16:11.685Z,10
2018-07-05T04:16:31.851Z,10
2018-07-05T04:16:52.022Z,15
2018-07-05T04:17:12.227Z,15
2018-07-05T04:17:32.400Z,15
2018-07-05T04:17:52.636Z,15
2018-07-05T04:20:33.922Z,15
2018-07-05T04:20:54.118Z,15
2018-07-05T04:21:14.296Z,15
2018-07-05T04:21:34.546Z,15
2018-07-05T04:21:54.736Z,15
2018-07-05T04:22:14.930Z,15
2018-07-05T04:22:35.160Z,15
2018-07-05T04:22:55.398Z,15
2018-07-05T04:32:39.045Z,15
2018-07-05T04:34:17.700Z,15
2018-07-05T04:34:37.843Z,15
2018-07-05T04:38:12.180Z,20
2018-07-05T04:38:32.377Z,20
2018-07-05T04:40:32.851Z,20
2018-07-05T04:40:53.013Z,20
2018-07-05T04:41:13.220Z,20
2018-07-05T04:41:33.427Z,20
2018-07-05T04:41:53.588Z,20
2018-07-05T04:42:13.757Z,20
2018-07-05T04:42:33.969Z,20
2018-07-05T04:42:54.145Z,20
2018-07-05T04:43:14.356Z,20
2018-07-05T04:43:34.547Z,20
2018-07-05T04:43:54.735Z,20
2018-07-05T04:44:14.907Z,20
2018-07-05T04:44:35.091Z,20
2018-07-05T04:44:55.312Z,20
2018-07-05T04:45:15.542Z,20
2018-07-05T04:45:35.716Z,20
2018-07-05T04:45:55.890Z,25
2018-07-05T04:46:16.096Z,25
2018-07-05T04:46:36.282Z,25
2018-07-05T04:46:56.454Z,25
2018-07-05T04:47:16.628Z,25
2018-07-05T04:47:36.829Z,25
2018-07-05T04:47:57.099Z,25
2018-07-05T04:48:17.419Z,25
2018-07-05T04:48:37.661Z,25
2018-07-05T04:48:57.866Z,25
2018-07-05T04:49:18.110Z,25
2018-07-05T04:49:38.288Z,25
2018-07-05T04:49:58.455Z,25
2018-07-05T04:50:18.614Z,25
2018-07-05T04:50:38.834Z,25
2018-07-05T04:50:59.060Z,25
2018-07-05T04:51:19.220Z,25
2018-07-05T04:51:39.411Z,25
2018-07-05T04:51:59.570Z,25
2018-07-05T04:52:19.808Z,25
2018-07-05T04:52:40.014Z,25
2018-07-05T04:53:00.194Z,25
2018-07-05T04:53:20.376Z,25
2018-07-05T04:53:40.555Z,25
2018-07-05T04:54:00.736Z,25
2018-07-05T04:54:20.917Z,25
2018-07-05T04:54:41.122Z,25
2018-07-05T04:55:01.384Z,25
2018-07-05T04:55:21.577Z,25
2018-07-05T04:55:41.859Z,25
2018-07-05T04:56:02.043Z,25
2018-07-05T04:56:22.244Z,25
2018-07-05T04:56:42.468Z,25
2018-07-05T04:57:02.700Z,25
2018-07-05T04:57:22.868Z,25
2018-07-05T04:57:43.042Z,25
2018-07-05T04:58:03.271Z,25
2018-07-05T04:58:23.463Z,25
2018-07-05T04:58:43.627Z,25
2018-07-05T04:59:03.860Z,25
2018-07-05T04:59:24.076Z,25
2018-07-05T04:59:44.262Z,25
2018-07-05T05:00:04.430Z,25
2018-07-05T05:00:24.616Z,25
2018-07-05T05:00:44.845Z,25
2018-07-05T05:01:05.020Z,25
2018-07-05T05:01:25.240Z,25
2018-07-05T05:01:45.433Z,25
2018-07-05T05:02:05.675Z,25
2018-07-05T05:02:25.973Z,25
2018-07-05T05:02:46.183Z,25
2018-07-05T05:03:06.368Z,25
2018-07-05T05:03:26.576Z,20
2018-07-05T05:03:46.793Z,20
2018-07-05T05:04:07.022Z,20
2018-07-05T05:04:27.231Z,20
2018-07-05T05:04:47.389Z,20
2018-07-05T05:05:07.560Z,20
2018-07-05T05:05:27.763Z,20
2018-07-05T05:05:47.939Z,20
2018-07-05T05:06:08.134Z,20
2018-07-05T05:06:28.297Z,20
2018-07-05T05:06:48.479Z,20
2018-07-05T05:07:08.748Z,15
2018-07-05T05:07:28.912Z,15
2018-07-05T05:07:49.084Z,15
2018-07-05T05:11:19.659Z,20
2018-07-05T05:11:39.795Z,20
2018-07-05T05:12:00.015Z,20
2018-07-05T05:12:20.235Z,20
2018-07-05T05:12:40.454Z,20
2018-07-05T05:13:00.635Z,20
2018-07-05T05:13:20.954Z,20
2018-07-05T05:13:41.183Z,20
2018-07-05T05:14:01.395Z,25
2018-07-05T05:14:21.595Z,25
2018-07-05T05:14:41.765Z,25
2018-07-05T05:15:02.119Z,25
2018-07-05T05:15:22.393Z,25
2018-07-05T05:15:42.566Z,25
2018-07-05T05:16:02.768Z,25
2018-07-05T05:16:22.969Z,25
2018-07-05T05:16:43.150Z,25
2018-07-05T05:17:03.423Z,25
2018-07-05T05:17:23.621Z,25
2018-07-05T05:17:43.809Z,25
2018-07-05T05:18:04.007Z,25
2018-07-05T05:18:24.209Z,25
2018-07-05T05:18:44.455Z,25
2018-07-05T05:19:04.712Z,20
2018-07-05T05:19:24.927Z,20
2018-07-05T05:19:45.139Z,20
2018-07-05T05:20:05.310Z,20
2018-07-05T05:21:46.461Z,20
2018-07-05T05:22:06.654Z,20
2018-07-05T05:23:56.378Z,20
2018-07-05T05:24:16.647Z,20
2018-07-05T05:24:36.713Z,20
2018-07-05T05:24:56.880Z,20
2018-07-05T05:25:17.041Z,20
2018-07-05T05:25:37.219Z,20
2018-07-05T05:25:57.404Z,20
2018-07-05T05:26:17.608Z,25
2018-07-05T05:26:37.789Z,25
2018-07-05T05:26:57.986Z,25
2018-07-05T05:27:18.191Z,25
2018-07-05T05:27:38.327Z,25
2018-07-05T05:27:58.483Z,25
2018-07-05T05:28:18.690Z,25
2018-07-05T05:28:38.931Z,25
2018-07-05T05:28:59.167Z,25
2018-07-05T05:30:39.166Z,25
2018-07-05T05:30:59.316Z,25
2018-07-05T05:32:55.309Z,25
2018-07-05T05:33:15.523Z,25
2018-07-05T05:33:35.675Z,25
2018-07-05T05:34:46.719Z,25
2018-07-05T05:35:06.914Z,25
2018-07-05T05:35:27.072Z,30
2018-07-05T05:35:47.343Z,30
2018-07-05T05:36:07.565Z,30
2018-07-05T05:36:27.770Z,30
2018-07-05T05:36:47.946Z,30
2018-07-05T05:37:08.161Z,30
2018-07-05T05:37:28.340Z,30
2018-07-05T05:37:48.540Z,30
2018-07-05T05:38:08.715Z,30
2018-07-05T05:38:28.894Z,30
2018-07-05T05:38:49.041Z,30
2018-07-05T05:39:09.361Z,30
2018-07-05T05:39:29.569Z,30
2018-07-05T05:39:49.728Z,35
2018-07-05T05:40:09.873Z,35
2018-07-05T05:40:30.053Z,35
2018-07-05T05:40:50.243Z,35
2018-07-05T05:41:10.395Z,40
2018-07-05T05:41:30.582Z,40
2018-07-05T05:41:50.752Z,45
2018-07-05T05:42:10.932Z,45
2018-07-05T05:42:31.095Z,45
2018-07-05T05:42:51.256Z,45
2018-07-05T05:43:11.448Z,45
2018-07-05T05:43:31.592Z,50
2018-07-05T05:43:51.754Z,50
2018-07-05T05:44:11.925Z,50
2018-07-05T05:44:32.074Z,45
2018-07-05T05:44:52.240Z,50
2018-07-05T05:45:12.377Z,50
2018-07-05T05:45:32.608Z,50
2018-07-05T05:45:52.790Z,50
2018-07-05T05:46:12.990Z,50
2018-07-05T05:46:33.154Z,50
2018-07-05T05:46:53.325Z,50
2018-07-05T05:47:13.473Z,45
2018-07-05T05:47:33.648Z,45
2018-07-05T05:47:53.825Z,45
2018-07-05T05:48:14.097Z,45
2018-07-05T05:48:34.294Z,45
2018-07-05T05:48:54.480Z,45
2018-07-05T05:49:14.656Z,45
2018-07-05T05:49:34.801Z,45
2018-07-05T05:49:55.037Z,45
2018-07-05T05:50:15.227Z,45
2018-07-05T05:50:35.405Z,45
2018-07-05T05:50:55.572Z,45
2018-07-05T05:51:15.758Z,45
2018-07-05T05:51:35.903Z,45
2018-07-05T05:51:56.125Z,45
2018-07-05T05:52:16.330Z,45
2018-07-05T05:52:36.482Z,45
2018-07-05T05:52:56.644Z,50
2018-07-05T05:53:16.832Z,50
2018-07-05T05:53:37.015Z,50
2018-07-05T05:53:57.191Z,50
2018-07-05T05:54:17.347Z,50
2018-07-05T05:54:37.548Z,45
2018-07-05T05:54:57.767Z,45
2018-07-05T05:55:17.916Z,50
2018-07-05T05:55:38.095Z,45
2018-07-05T05:55:58.367Z,45
2018-07-05T05:56:18.510Z,45
2018-07-05T05:56:38.679Z,45
2018-07-05T05:56:58.909Z,45
2018-07-05T05:57:19.088Z,45
2018-07-05T05:57:39.250Z,45
2018-07-05T05:57:59.398Z,45
2018-07-05T05:58:19.596Z,45
2018-07-05T05:58:39.752Z,40
2018-07-05T05:58:59.971Z,40
2018-07-05T05:59:20.133Z,40
2018-07-05T05:59:40.287Z,45
2018-07-05T06:00:00.453Z,45
2018-07-05T06:00:20.640Z,45
2018-07-05T06:00:40.796Z,45
2018-07-05T06:01:00.988Z,45
2018-07-05T06:01:21.206Z,45
2018-07-05T06:01:41.376Z,45
2018-07-05T06:02:01.615Z,45
2018-07-05T06:02:21.782Z,45
2018-07-05T06:02:41.989Z,45
2018-07-05T06:03:02.165Z,45
2018-07-05T06:03:22.347Z,45
2018-07-05T06:03:42.553Z,45
2018-07-05T06:04:02.723Z,45
2018-07-05T06:04:22.900Z,45
2018-07-05T06:04:43.056Z,45
2018-07-05T06:05:03.214Z,45
2018-07-05T06:05:23.382Z,45
2018-07-05T06:05:43.546Z,45
2018-07-05T06:06:03.716Z,45
2018-07-05T06:06:23.880Z,45
2018-07-05T06:06:44.038Z,45
2018-07-05T06:07:04.164Z,50
2018-07-05T06:07:24.318Z,50
2018-07-05T06:07:44.500Z,50
2018-07-05T06:08:04.676Z,50
2018-07-05T06:08:24.814Z,50
2018-07-05T06:08:44.988Z,50
2018-07-05T06:09:05.139Z,45
2018-07-05T06:09:25.317Z,45
2018-07-05T06:09:45.450Z,45
2018-07-05T06:10:05.648Z,45
2018-07-05T06:10:25.808Z,45
2018-07-05T06:10:45.959Z,45
2018-07-05T06:11:06.111Z,45
2018-07-05T06:11:26.278Z,45
2018-07-05T06:11:46.428Z,45
2018-07-05T06:12:06.607Z,45
2018-07-05T06:12:26.760Z,45
2018-07-05T06:12:46.917Z,45
2018-07-05T06:13:07.084Z,45
2018-07-05T06:13:27.255Z,45
2018-07-05T06:13:47.417Z,45
2018-07-05T06:14:07.549Z,45
2018-07-05T06:14:27.728Z,45
2018-07-05T06:14:47.910Z,45
2018-07-05T06:15:08.068Z,45
2018-07-05T06:15:28.218Z,45
2018-07-05T06:15:48.378Z,45
2018-07-05T06:16:08.544Z,45
2018-07-05T06:16:28.693Z,45
2018-07-05T06:16:48.874Z,45
2018-07-05T06:17:09.070Z,40
2018-07-05T06:17:29.220Z,40
2018-07-05T06:17:49.405Z,40
2018-07-05T06:18:09.552Z,40
2018-07-05T06:18:29.761Z,40
2018-07-05T06:18:49.894Z,40
2018-07-05T06:19:10.053Z,40
2018-07-05T06:19:30.208Z,40
2018-07-05T06:19:50.363Z,40
2018-07-05T06:20:10.623Z,40
2018-07-05T06:20:30.805Z,40
2018-07-05T06:20:51.037Z,40
2018-07-05T06:21:11.209Z,40
2018-07-05T06:21:31.476Z,40
2018-07-05T06:21:51.672Z,40
2018-07-05T06:22:11.861Z,40
2018-07-05T06:22:32.062Z,40
2018-07-05T06:22:52.222Z,40
2018-07-05T06:23:12.467Z,40
2018-07-05T06:23:32.647Z,40
2018-07-05T06:23:52.822Z,40
2018-07-05T06:24:13.000Z,40
2018-07-05T06:24:33.173Z,40
2018-07-05T06:24:53.392Z,45
2018-07-05T06:25:13.639Z,45
2018-07-05T06:25:33.919Z,45
2018-07-05T06:25:54.279Z,45
2018-07-05T06:26:14.439Z,45
2018-07-05T06:26:34.660Z,45
2018-07-05T06:26:54.873Z,45
2018-07-05T06:27:15.064Z,45
2018-07-05T06:27:35.301Z,45
2018-07-05T06:27:55.497Z,45
2018-07-05T06:28:15.643Z,45
2018-07-05T06:28:35.839Z,45
2018-07-05T06:28:56.073Z,45
2018-07-05T06:29:16.226Z,45
2018-07-05T06:29:36.466Z,45
2018-07-05T06:29:56.667Z,45
2018-07-05T06:30:16.852Z,45
2018-07-05T06:30:37.022Z,45
2018-07-05T06:30:57.179Z,45
2018-07-05T06:31:17.497Z,40
2018-07-05T06:31:37.654Z,40
2018-07-05T06:31:57.930Z,40
2018-07-05T06:32:18.250Z,40
2018-07-05T06:32:38.551Z,40
2018-07-05T06:32:58.781Z,40
2018-07-05T06:33:18.970Z,40
2018-07-05T06:33:39.210Z,40
2018-07-05T06:33:59.470Z,40
2018-07-05T06:34:19.644Z,40
2018-07-05T06:34:39.844Z,40
2018-07-05T06:34:59.981Z,40
2018-07-05T06:35:20.187Z,40
2018-07-05T06:35:40.420Z,40
2018-07-05T06:36:00.561Z,45
2018-07-05T06:36:20.756Z,45
2018-07-05T06:36:40.912Z,45
2018-07-05T06:37:01.096Z,45
2018-07-05T06:37:21.331Z,45
2018-07-05T06:37:41.511Z,50
2018-07-05T06:38:01.735Z,45
2018-07-05T06:38:21.901Z,45
2018-07-05T06:38:42.106Z,45
2018-07-05T06:39:02.296Z,45
2018-07-05T06:39:22.812Z,45
2018-07-05T06:39:43.022Z,45
2018-07-05T06:40:03.235Z,45
2018-07-05T06:40:23.421Z,40
2018-07-05T06:40:43.606Z,40
2018-07-05T06:41:03.798Z,40
2018-07-05T06:41:23.969Z,40
2018-07-05T06:41:44.135Z,45
2018-07-05T06:42:04.288Z,45
2018-07-05T06:42:24.476Z,40
2018-07-05T06:42:44.631Z,45
2018-07-05T06:43:04.778Z,40
2018-07-05T06:43:24.919Z,45
2018-07-05T06:43:45.062Z,45
2018-07-05T06:44:05.721Z,45
2018-07-05T06:44:25.868Z,45
2018-07-05T06:44:46.031Z,45
2018-07-05T06:45:06.183Z,45
2018-07-05T06:45:26.369Z,45
2018-07-05T06:45:46.511Z,45
2018-07-05T06:46:06.666Z,45
2018-07-05T06:46:26.877Z,45
2018-07-05T06:46:47.018Z,45
2018-07-05T06:47:07.231Z,45
2018-07-05T06:47:27.439Z,45
2018-07-05T06:47:47.818Z,45
2018-07-05T06:48:07.983Z,45
2018-07-05T06:48:28.163Z,45
2018-07-05T06:48:48.351Z,45
2018-07-05T06:49:08.537Z,45
2018-07-05T06:49:28.732Z,45
2018-07-05T06:49:48.860Z,45
2018-07-05T06:50:09.032Z,45
2018-07-05T06:50:29.192Z,45
2018-07-05T06:50:49.355Z,45
2018-07-05T06:51:09.553Z,45
2018-07-05T06:51:29.717Z,45
2018-07-05T06:51:49.877Z,45
2018-07-05T06:52:10.051Z,45
2018-07-05T06:52:30.210Z,45
2018-07-05T06:52:50.385Z,45
2018-07-05T06:53:11.346Z,45
2018-07-05T06:53:31.631Z,45
2018-07-05T06:53:51.837Z,45
2018-07-05T06:54:11.973Z,45
2018-07-05T06:54:32.152Z,45
2018-07-05T06:54:52.309Z,45
2018-07-05T06:55:12.468Z,45
2018-07-05T06:55:32.634Z,45
2018-07-05T06:55:52.788Z,45
2018-07-05T06:56:12.969Z,45
2018-07-05T06:56:33.128Z,45
2018-07-05T06:56:53.278Z,45
2018-07-05T06:57:13.441Z,45
2018-07-05T06:57:33.608Z,45
2018-07-05T06:57:53.739Z,45
2018-07-05T06:58:13.897Z,45
2018-07-05T06:58:34.061Z,45
2018-07-05T06:58:54.267Z,45
2018-07-05T06:59:14.468Z,45
2018-07-05T06:59:34.618Z,45
2018-07-05T06:59:54.790Z,45
2018-07-05T07:00:14.947Z,45
2018-07-05T07:00:35.128Z,45
2018-07-05T07:00:55.284Z,45
2018-07-05T07:01:15.478Z,45
2018-07-05T07:01:35.645Z,45
2018-07-05T07:01:55.800Z,45
2018-07-05T07:02:15.978Z,45
2018-07-05T07:02:36.137Z,45
2018-07-05T07:02:56.299Z,45
2018-07-05T07:03:16.478Z,45
2018-07-05T07:03:36.626Z,45
2018-07-05T07:03:56.765Z,45
2018-07-05T07:04:16.924Z,45
2018-07-05T07:04:37.109Z,45
2018-07-05T07:04:57.290Z,45
2018-07-05T07:05:17.463Z,45
2018-07-05T07:05:37.617Z,45
2018-07-05T07:05:57.768Z,45
2018-07-05T07:06:17.921Z,45
2018-07-05T07:06:38.118Z,45
2018-07-05T07:06:58.283Z,50
2018-07-05T07:07:18.446Z,45
2018-07-05T07:07:38.609Z,45
2018-07-05T07:07:58.795Z,45
2018-07-05T07:08:18.964Z,45
2018-07-05T07:08:39.121Z,45
2018-07-05T07:08:59.281Z,45
2018-07-05T07:09:19.459Z,45
2018-07-05T07:09:39.639Z,45
2018-07-05T07:09:59.811Z,45
2018-07-05T07:10:19.984Z,45
2018-07-05T07:10:40.141Z,45
2018-07-05T07:11:00.299Z,45
2018-07-05T07:11:20.463Z,45
2018-07-05T07:11:40.626Z,45
2018-07-05T07:12:00.818Z,45
2018-07-05T07:12:20.983Z,45
2018-07-05T07:12:41.169Z,45
2018-07-05T07:13:01.347Z,50
2018-07-05T07:13:21.538Z,50
2018-07-05T07:13:41.703Z,50
2018-07-05T07:14:01.859Z,50
2018-07-05T07:14:22.020Z,50
2018-07-05T07:14:42.188Z,50
2018-07-05T07:15:02.352Z,50
2018-07-05T07:15:22.506Z,50
2018-07-05T07:15:42.661Z,50
2018-07-05T07:16:02.865Z,50
2018-07-05T07:16:23.013Z,50
2018-07-05T07:16:43.191Z,50
2018-07-05T07:17:03.347Z,50
2018-07-05T07:17:23.496Z,50
2018-07-05T07:17:43.645Z,50
2018-07-05T07:18:03.812Z,50
2018-07-05T07:18:23.972Z,50
2018-07-05T07:18:44.174Z,50
2018-07-05T07:19:04.356Z,50
2018-07-05T07:19:24.533Z,50
2018-07-05T07:19:44.691Z,50
2018-07-05T07:20:04.863Z,50
2018-07-05T07:20:25.057Z,50
2018-07-05T07:20:45.227Z,50
2018-07-05T07:21:05.385Z,50
2018-07-05T07:21:25.660Z,50
2018-07-05T07:21:45.869Z,50
2018-07-05T07:22:06.041Z,55
2018-07-05T07:22:26.168Z,55
2018-07-05T07:22:46.341Z,50
2018-07-05T07:23:06.495Z,50
2018-07-05T07:23:26.659Z,50
2018-07-05T07:23:46.809Z,50
2018-07-05T07:24:06.995Z,50
2018-07-05T07:24:27.154Z,50
2018-07-05T07:24:47.326Z,50
2018-07-05T07:25:07.490Z,50
2018-07-05T07:25:27.649Z,50
2018-07-05T07:25:47.829Z,50
2018-07-05T07:26:07.969Z,50
2018-07-05T07:26:28.093Z,50
2018-07-05T07:26:48.245Z,50
2018-07-05T07:27:08.452Z,50
2018-07-05T07:27:28.637Z,50
2018-07-05T07:27:48.799Z,50
2018-07-05T07:28:08.960Z,50
2018-07-05T07:28:29.128Z,50
2018-07-05T07:28:49.322Z,55
2018-07-05T07:29:09.486Z,55
2018-07-05T07:29:29.710Z,55
2018-07-05T07:29:49.877Z,55
2018-07-05T07:30:10.063Z,55
2018-07-05T07:30:30.250Z,55
2018-07-05T07:30:50.438Z,55
2018-07-05T07:31:10.623Z,55
2018-07-05T07:31:30.863Z,55
2018-07-05T07:31:51.049Z,55
2018-07-05T07:32:11.227Z,55
2018-07-05T07:32:31.386Z,55
2018-07-05T07:32:51.581Z,55
2018-07-05T07:33:11.743Z,55
2018-07-05T07:33:31.931Z,55
2018-07-05T07:33:52.086Z,55
2018-07-05T07:34:12.247Z,55
2018-07-05T07:34:32.392Z,55
2018-07-05T07:34:52.560Z,55
2018-07-05T07:35:12.707Z,55
2018-07-05T07:35:32.873Z,55
2018-07-05T07:35:53.036Z,55
2018-07-05T07:36:13.180Z,55
2018-07-05T07:36:33.355Z,55
2018-07-05T07:36:53.504Z,50
2018-07-05T07:37:13.651Z,50
2018-07-05T07:37:33.994Z,50
2018-07-05T07:37:54.095Z,55
2018-07-05T07:38:14.245Z,55
2018-07-05T07:38:34.422Z,55
2018-07-05T07:38:54.592Z,50
2018-07-05T07:39:14.770Z,50
2018-07-05T07:39:34.919Z,50
2018-07-05T07:39:55.067Z,45
2018-07-05T07:40:15.226Z,45
2018-07-05T07:40:35.383Z,45
2018-07-05T07:40:55.554Z,50
2018-07-05T07:41:15.711Z,45
2018-07-05T07:41:35.876Z,45
2018-07-05T07:41:56.049Z,45
2018-07-05T07:42:16.226Z,50
2018-07-05T07:42:36.415Z,45
2018-07-05T07:42:56.605Z,45
2018-07-05T07:43:16.781Z,45
2018-07-05T07:43:36.963Z,45
2018-07-05T07:43:57.135Z,45
2018-07-05T07:44:17.313Z,45
2018-07-05T07:44:37.465Z,45
2018-07-05T07:44:57.636Z,45
2018-07-05T07:45:17.836Z,45
2018-07-05T07:45:38.058Z,45
2018-07-05T07:45:58.284Z,45
2018-07-05T07:46:18.451Z,45
2018-07-05T07:46:38.605Z,45
2018-07-05T07:46:58.785Z,45
2018-07-05T07:47:18.951Z,45
2018-07-05T07:47:39.115Z,45
2018-07-05T07:47:59.262Z,45
2018-07-05T07:48:19.463Z,45
2018-07-05T07:48:39.674Z,50
2018-07-05T07:48:59.835Z,45
2018-07-05T07:49:20.043Z,45
2018-07-05T07:49:40.193Z,45
2018-07-05T07:50:00.352Z,45
2018-07-05T07:50:20.565Z,45
2018-07-05T07:50:40.752Z,45
2018-07-05T07:51:00.913Z,45
2018-07-05T07:51:21.124Z,45
2018-07-05T07:51:41.252Z,45
2018-07-05T07:52:01.424Z,50
2018-07-05T07:52:21.554Z,50
2018-07-05T07:52:41.712Z,45
2018-07-05T07:53:01.858Z,45
2018-07-05T07:53:22.039Z,45
2018-07-05T07:53:42.183Z,45
2018-07-05T07:54:02.358Z,45
2018-07-05T07:54:22.588Z,45
2018-07-05T07:54:42.746Z,45
2018-07-05T07:55:02.943Z,45
2018-07-05T07:55:23.134Z,45
2018-07-05T07:55:43.297Z,45
2018-07-05T07:56:03.504Z,45
2018-07-05T07:56:23.686Z,45
2018-07-05T07:56:43.861Z,45
2018-07-05T07:57:04.040Z,45
2018-07-05T07:57:24.220Z,45
2018-07-05T07:57:44.392Z,45
2018-07-05T07:58:04.574Z,45
2018-07-05T07:58:24.850Z,45
2018-07-05T07:58:45.007Z,45
2018-07-05T07:59:05.195Z,45
2018-07-05T07:59:25.487Z,40
2018-07-05T07:59:45.630Z,40
2018-07-05T08:00:05.784Z,40
2018-07-05T08:00:26.005Z,40
2018-07-05T08:00:46.204Z,40
2018-07-05T08:01:06.377Z,40
2018-07-05T08:01:26.547Z,40
2018-07-05T08:01:46.723Z,40
2018-07-05T08:02:06.871Z,40
2018-07-05T08:02:27.016Z,40
2018-07-05T08:02:47.179Z,40
2018-07-05T08:03:07.332Z,40
2018-07-05T08:03:27.506Z,40
2018-07-05T08:03:47.655Z,40
2018-07-05T08:04:07.796Z,40
2018-07-05T08:04:27.952Z,40
2018-07-05T08:04:48.093Z,40
2018-07-05T08:05:08.278Z,40
2018-07-05T08:05:28.499Z,40
2018-07-05T08:05:48.626Z,40
2018-07-05T08:06:08.853Z,40
2018-07-05T08:06:29.010Z,40
2018-07-05T08:06:49.192Z,40
2018-07-05T08:07:09.380Z,40
2018-07-05T08:07:29.654Z,40
2018-07-05T08:07:49.880Z,40
2018-07-05T08:08:10.213Z,40
2018-07-05T08:08:30.360Z,40
2018-07-05T08:08:50.586Z,40
2018-07-05T08:09:10.744Z,40
2018-07-05T08:09:30.909Z,40
2018-07-05T08:09:51.060Z,40
2018-07-05T08:10:11.226Z,40
2018-07-05T08:10:31.413Z,45
2018-07-05T08:10:51.566Z,45
2018-07-05T08:11:11.735Z,45
2018-07-05T08:11:31.865Z,45
2018-07-05T08:11:52.043Z,45
2018-07-05T08:12:12.155Z,45
2018-07-05T08:12:32.379Z,50
2018-07-05T08:12:52.540Z,50
2018-07-05T08:13:12.679Z,50
2018-07-05T08:13:32.949Z,55
2018-07-05T08:13:53.112Z,55
2018-07-05T08:14:13.278Z,55
2018-07-05T08:14:33.467Z,55
2018-07-05T08:14:53.629Z,55
2018-07-05T08:15:14.164Z,60
2018-07-05T08:15:34.391Z,60
2018-07-05T08:15:54.556Z,60
2018-07-05T08:16:14.787Z,60
2018-07-05T08:16:34.919Z,60
2018-07-05T08:16:55.087Z,60
2018-07-05T08:17:15.231Z,60
2018-07-05T08:17:35.399Z,60
2018-07-05T08:17:55.618Z,60
2018-07-05T08:18:15.764Z,60
2018-07-05T08:18:35.939Z,60
2018-07-05T08:18:56.099Z,60
2018-07-05T08:19:16.267Z,60
2018-07-05T08:19:36.478Z,65
2018-07-05T08:19:56.631Z,65
2018-07-05T08:20:16.796Z,65
2018-07-05T08:20:36.954Z,65
2018-07-05T08:20:57.120Z,65
2018-07-05T08:21:17.322Z,65
2018-07-05T08:21:37.497Z,65
2018-07-05T08:21:57.697Z,65
2018-07-05T08:22:17.844Z,65
2018-07-05T08:22:38.005Z,65
2018-07-05T08:22:58.164Z,60
2018-07-05T08:23:18.332Z,60
2018-07-05T08:23:38.486Z,60
2018-07-05T08:23:58.654Z,60
2018-07-05T08:24:18.823Z,60
2018-07-05T08:24:38.959Z,60
2018-07-05T08:24:59.130Z,60
2018-07-05T08:25:19.371Z,55
2018-07-05T08:25:39.602Z,55
2018-07-05T08:25:59.739Z,55
2018-07-05T08:26:19.899Z,55
2018-07-05T08:26:40.041Z,55
2018-07-05T08:27:00.180Z,55
2018-07-05T08:27:20.361Z,55
2018-07-05T08:27:40.558Z,55
2018-07-05T08:28:00.693Z,55
2018-07-05T08:28:20.838Z,55
2018-07-05T08:28:41.002Z,55
2018-07-05T08:29:01.158Z,55
2018-07-05T08:29:21.295Z,55
2018-07-05T08:29:41.456Z,55
2018-07-05T08:30:01.629Z,55
2018-07-05T08:30:21.767Z,55
2018-07-05T08:30:41.928Z,55
2018-07-05T08:31:02.116Z,55
2018-07-05T08:31:22.332Z,55
2018-07-05T08:31:42.474Z,50
2018-07-05T08:32:02.673Z,50
2018-07-05T08:32:22.811Z,50
2018-07-05T08:32:42.952Z,50
2018-07-05T08:33:03.109Z,50
2018-07-05T08:33:23.293Z,50
2018-07-05T08:33:43.464Z,50
2018-07-05T08:34:03.618Z,50
2018-07-05T08:34:23.793Z,45
2018-07-05T08:34:43.937Z,45
2018-07-05T08:35:04.112Z,45
2018-07-05T08:35:24.307Z,45
2018-07-05T08:35:44.437Z,45
2018-07-05T08:36:04.638Z,45
2018-07-05T08:36:24.854Z,45
2018-07-05T08:36:45.021Z,45
2018-07-05T08:37:05.233Z,45
2018-07-05T08:37:25.401Z,45
2018-07-05T08:37:45.665Z,45
2018-07-05T08:38:05.784Z,45
2018-07-05T08:38:25.963Z,45
2018-07-05T08:38:46.145Z,45
2018-07-05T08:39:06.304Z,45
2018-07-05T08:39:26.469Z,45
2018-07-05T08:39:46.645Z,45
2018-07-05T08:40:06.793Z,45
2018-07-05T08:40:26.952Z,45
2018-07-05T08:40:47.127Z,45
2018-07-05T08:41:07.279Z,45
2018-07-05T08:41:27.441Z,45
2018-07-05T08:41:47.621Z,45
2018-07-05T08:42:07.768Z,45
2018-07-05T08:42:27.937Z,45
2018-07-05T08:42:48.121Z,45
2018-07-05T08:43:08.376Z,45
2018-07-05T08:43:28.523Z,45
2018-07-05T08:43:48.789Z,45
2018-07-05T08:44:08.947Z,45
2018-07-05T08:44:29.094Z,45
2018-07-05T08:44:49.303Z,45
2018-07-05T08:45:09.423Z,45
2018-07-05T08:45:29.570Z,45
2018-07-05T08:45:49.738Z,45
2018-07-05T08:46:09.950Z,45
2018-07-05T08:46:30.237Z,45
2018-07-05T08:46:50.393Z,45
2018-07-05T08:47:10.541Z,45
2018-07-05T08:47:30.730Z,45
2018-07-05T08:47:50.912Z,45
2018-07-05T08:48:11.055Z,45
2018-07-05T08:48:31.258Z,45
2018-07-05T08:48:51.540Z,45
2018-07-05T08:49:11.732Z,45
2018-07-05T08:49:31.914Z,45
2018-07-05T08:49:52.073Z,45
2018-07-05T08:50:12.237Z,45
2018-07-05T08:50:32.411Z,45
2018-07-05T08:50:52.630Z,45
2018-07-05T08:51:12.891Z,45
2018-07-05T08:51:33.042Z,45
2018-07-05T08:51:53.227Z,45
2018-07-05T08:52:13.422Z,45
2018-07-05T08:52:33.576Z,45
2018-07-05T08:52:53.747Z,45
2018-07-05T08:53:14.037Z,45
2018-07-05T08:53:34.211Z,45
2018-07-05T08:53:54.366Z,45
2018-07-05T08:54:14.581Z,45
2018-07-05T08:54:34.753Z,45
2018-07-05T08:54:54.928Z,45
2018-07-05T08:55:15.116Z,45
2018-07-05T08:55:35.325Z,45
2018-07-05T08:55:55.488Z,45
2018-07-05T08:56:15.660Z,45
2018-07-05T08:56:35.808Z,45
2018-07-05T08:56:56.016Z,45
2018-07-05T08:57:16.264Z,45
2018-07-05T08:57:36.425Z,45
2018-07-05T08:57:56.580Z,45
2018-07-05T08:58:16.754Z,45
2018-07-05T08:58:36.948Z,45
2018-07-05T08:58:57.157Z,45
2018-07-05T08:59:17.331Z,45
2018-07-05T08:59:37.509Z,45
2018-07-05T08:59:57.618Z,45
2018-07-05T09:00:17.810Z,45
2018-07-05T09:00:37.971Z,45
2018-07-05T09:00:58.127Z,45
2018-07-05T09:01:18.284Z,45
2018-07-05T09:01:38.492Z,45
2018-07-05T09:01:58.664Z,45
2018-07-05T09:02:18.860Z,45
2018-07-05T09:02:39.107Z,45
2018-07-05T09:02:59.279Z,45
2018-07-05T09:03:19.494Z,45
2018-07-05T09:03:39.651Z,45
2018-07-05T09:03:59.848Z,45
2018-07-05T09:04:19.984Z,45
2018-07-05T09:04:40.134Z,45
2018-07-05T09:05:00.299Z,45
2018-07-05T09:05:20.508Z,45
2018-07-05T09:05:40.596Z,45
2018-07-05T09:06:00.780Z,45
2018-07-05T09:06:20.938Z,45
2018-07-05T09:06:41.101Z,45
2018-07-05T09:07:01.248Z,45
2018-07-05T09:07:21.401Z,50
2018-07-05T09:07:41.551Z,50
2018-07-05T09:08:01.718Z,50
2018-07-05T09:08:21.881Z,50
2018-07-05T09:08:42.047Z,50
2018-07-05T09:09:02.226Z,50
2018-07-05T09:09:22.368Z,50
2018-07-05T09:09:42.535Z,50
2018-07-05T09:10:02.725Z,50
2018-07-05T09:10:22.908Z,45
2018-07-05T09:10:43.080Z,50
2018-07-05T09:11:03.241Z,50
2018-07-05T09:11:23.391Z,50
2018-07-05T09:11:43.548Z,50
2018-07-05T09:12:03.717Z,50
2018-07-05T09:12:23.879Z,50
2018-07-05T09:12:44.045Z,50
2018-07-05T09:13:04.208Z,50
2018-07-05T09:13:24.371Z,50
2018-07-05T09:13:44.522Z,50
2018-07-05T09:14:04.676Z,50
2018-07-05T09:14:24.842Z,50
2018-07-05T09:14:44.989Z,50
2018-07-05T09:15:05.155Z,50
2018-07-05T09:15:25.315Z,50
2018-07-05T09:15:45.473Z,55
2018-07-05T09:16:05.648Z,55
2018-07-05T09:16:25.801Z,55
2018-07-05T09:16:45.967Z,55
2018-07-05T09:17:06.122Z,55
2018-07-05T09:17:26.426Z,55
2018-07-05T09:17:46.625Z,60
2018-07-05T09:18:07.013Z,60
2018-07-05T09:18:27.298Z,60
2018-07-05T09:18:47.462Z,60
2018-07-05T09:19:07.618Z,60
2018-07-05T09:19:27.776Z,60
2018-07-05T09:19:47.936Z,60
2018-07-05T09:20:08.090Z,60
2018-07-05T09:20:28.294Z,60
2018-07-05T09:20:48.440Z,55
2018-07-05T09:21:08.656Z,55
2018-07-05T09:21:28.818Z,55
2018-07-05T09:21:49.066Z,55
2018-07-05T09:22:09.237Z,55
2018-07-05T09:22:29.394Z,55
2018-07-05T09:22:49.564Z,55
2018-07-05T09:23:09.778Z,50
2018-07-05T09:23:30.324Z,50
2018-07-05T09:23:50.439Z,50
2018-07-05T09:24:10.510Z,50
2018-07-05T09:24:30.668Z,50
2018-07-05T09:24:50.836Z,50
2018-07-05T09:25:10.995Z,50
2018-07-05T09:25:31.154Z,50
2018-07-05T09:25:51.367Z,50
2018-07-05T09:26:11.527Z,50
2018-07-05T09:26:31.652Z,50
2018-07-05T09:26:52.082Z,50
2018-07-05T09:27:12.052Z,45
2018-07-05T09:27:32.236Z,45
2018-07-05T09:27:52.380Z,45
2018-07-05T09:28:12.554Z,45
2018-07-05T09:28:32.712Z,45